»·PEaware :: XB-AVE KBFL-KMHV

XB-AVE :: KBFL-KMHV

FLIGHT INFORMATION

Flight Status: Arrived
Operator: Privately registered:
Mexico
More flights under this callsign
Pilot: José E. (16166)
Aircraft: CESSNA 172 SKYHAWK
(C172)
More flights by this aircraft type
Origin: KBFL Meadows
United States
Destination: KMHV Mojave
United States
More flights between these airports :: More routes between these airports
Route: +
File this flight plan on PilotEdge
Remarks:
Altitude:
(Current/Filed)
7,500ft
Speed:
(Current/Filed)
0kts
Departed: 27-Sep-17 01:35 PM
Arrived: 27-Sep-17 02:15 PM
Distance/Time
Traveled:
50nm/0:40
Distance/Time
To Go:
Arrived

Flight Plot

Page will automatically refresh every two minutes.


Map Options




Map Legend


Flown Route
Filed Route
Departure Airport
Arrival Airport
Navaid (VOR, NDB)
Fix

Horizontal Profiles

Position Reports

Time Latitude Longitude Heading Altitude Ground
Speed
27-Sep-17 13:28 35.435704 -119.052053 180 503ft 0kts
27-Sep-17 13:29 35.435704 -119.052053 180 503ft 0kts
27-Sep-17 13:30 35.435704 -119.052053 180 503ft 0kts
27-Sep-17 13:31 35.435492 -119.052480 262 501ft 5kts
27-Sep-17 13:32 35.434916 -119.054131 227 496ft 6kts
27-Sep-17 13:33 35.432766 -119.052659 135 492ft 11kts
27-Sep-17 13:34 35.430374 -119.049698 140 490ft 12kts
27-Sep-17 13:35 35.427724 -119.046568 133 486ft 14kts
27-Sep-17 13:36 35.425832 -119.044598 219 479ft 1kts
27-Sep-17 13:37 35.425739 -119.044698 228 479ft 0kts
27-Sep-17 13:38 35.425700 -119.044747 229 478ft 2kts
27-Sep-17 13:39 35.426488 -119.047453 316 480ft 44kts
27-Sep-17 13:40 35.442217 -119.063827 315 1192ft 82kts
27-Sep-17 13:41 35.460813 -119.054301 76 1913ft 98kts
27-Sep-17 13:42 35.447016 -119.026153 132 2439ft 98kts
27-Sep-17 13:43 35.434777 -118.996075 108 2930ft 98kts
27-Sep-17 13:44 35.426250 -118.964378 108 3429ft 99kts
27-Sep-17 13:45 35.417229 -118.933172 111 3962ft 96kts
27-Sep-17 13:46 35.407376 -118.902964 110 4452ft 97kts
27-Sep-17 13:47 35.398502 -118.871376 108 5008ft 97kts
27-Sep-17 13:48 35.388871 -118.841175 111 5554ft 98kts
27-Sep-17 13:49 35.377992 -118.809563 112 6079ft 98kts
27-Sep-17 13:50 35.365708 -118.779666 116 6611ft 98kts
27-Sep-17 13:51 35.352421 -118.749485 123 7117ft 100kts
27-Sep-17 13:52 35.339607 -118.719232 113 7526ft 103kts
27-Sep-17 13:53 35.326465 -118.686396 117 7564ft 107kts
27-Sep-17 13:54 35.312291 -118.654268 119 7562ft 106kts
27-Sep-17 13:55 35.298616 -118.629660 129 7609ft 105kts
27-Sep-17 13:56 35.284410 -118.611530 137 7622ft 94kts
27-Sep-17 13:57 35.265376 -118.591305 136 7612ft 95kts
27-Sep-17 13:58 35.245012 -118.570705 135 7645ft 95kts
27-Sep-17 13:59 35.227482 -118.554266 139 7661ft 96kts
27-Sep-17 14:00 35.206513 -118.533700 131 7647ft 95kts
27-Sep-17 14:01 35.188553 -118.509743 129 7635ft 95kts
27-Sep-17 14:02 35.167792 -118.482239 130 7646ft 95kts
27-Sep-17 14:03 35.154304 -118.461360 117 7667ft 93kts
27-Sep-17 14:04 35.141958 -118.433619 111 7663ft 88kts
27-Sep-17 14:05 35.131209 -118.407225 114 7304ft 87kts
27-Sep-17 14:06 35.119083 -118.381902 120 6996ft 86kts
27-Sep-17 14:07 35.106983 -118.357725 117 6725ft 83kts
27-Sep-17 14:08 35.096556 -118.333563 113 6502ft 85kts
27-Sep-17 14:09 35.086590 -118.306702 117 6173ft 85kts
27-Sep-17 14:10 35.082885 -118.279476 88 5710ft 84kts
27-Sep-17 14:11 35.085645 -118.251154 86 5189ft 84kts
27-Sep-17 14:12 35.086982 -118.222517 92 4669ft 83kts
27-Sep-17 14:13 35.087809 -118.194178 90 4133ft 84kts
27-Sep-17 14:14 35.088147 -118.165378 96 3838ft 81kts
27-Sep-17 14:15 35.089237 -118.137127 90 3869ft 84kts
27-Sep-17 14:16 35.086994 -118.110405 159 3730ft 78kts
27-Sep-17 14:17 35.065471 -118.109922 187 3480ft 78kts
27-Sep-17 14:18 35.059129 -118.132074 264 3069ft 81kts
27-Sep-17 14:19 35.059151 -118.152827 269 2756ft 25kts
27-Sep-17 14:20 35.059082 -118.157469 237 2765ft 6kts
27-Sep-17 14:21 35.058437 -118.157786 179 2764ft 0kts
27-Sep-17 14:22 35.058425 -118.157786 178 2764ft 1kts
27-Sep-17 14:23 35.057552 -118.156607 128 2760ft 6kts
27-Sep-17 14:24 35.056880 -118.156403 180 2759ft 0kts
27-Sep-17 14:25 35.056880 -118.156403 180 2759ft 0kts
27-Sep-17 14:26 35.056880 -118.156403 180 2759ft 0kts
27-Sep-17 14:27 35.056880 -118.156403 180 2759ft 0kts
27-Sep-17 14:28 35.056880 -118.156403 180 2759ft 0kts
27-Sep-17 14:29 35.056880 -118.156403 180 2759ft 0kts
27-Sep-17 14:30 35.056880 -118.156403 180 2759ft 0kts

Navigation Log

Ident Type
1. KBFL Airport
2. KMHV Airport